Time;durP1;ratioP1;P1;durP2;ratioP2;P2;SDS_P1;SDS_P2;PMS_P1;PMS_P2;Temp;Humidity;BMP_temperature;BMP_pressure;BME280_temperature;BME280_humidity;BME280_pressure;Samples;Min_cycle;Max_cycle;Signal;HPM_P1;HPM_P2
2022/10/14 00:02:40;;;;;;;55.60;45.60;;;;;;;8.63;72.54;100630.01;108271;1279;21887;-77
2022/10/14 00:05:09;;;;;;;58.80;47.70;;;;;;;8.59;72.64;100629.05;108400;1280;22002;-77
2022/10/14 00:07:38;;;;;;;56.50;45.90;;;;;;;8.60;72.69;100627.11;108544;1280;21983;-77
2022/10/14 00:10:07;;;;;;;57.70;45.50;;;;;;;8.64;72.64;100624.09;108529;1280;21939;-78
2022/10/14 00:12:36;;;;;;;51.60;44.80;;;;;;;8.64;72.56;100626.52;108223;1280;23677;-77
2022/10/14 00:15:06;;;;;;;52.40;44.20;;;;;;;8.61;72.65;100629.21;108338;1280;21954;-77
2022/10/14 00:17:35;;;;;;;52.50;44.50;;;;;;;8.58;72.64;100630.65;108401;1280;21945;-77
2022/10/14 00:20:05;;;;;;;52.50;46.40;;;;;;;8.58;72.70;100629.27;108494;1280;23775;-77
2022/10/14 00:22:34;;;;;;;57.50;47.50;;;;;;;8.59;72.73;100630.97;108401;1280;23729;-77
2022/10/14 00:25:03;;;;;;;54.60;44.90;;;;;;;8.57;72.68;100630.67;108402;1279;22017;-78
2022/10/14 00:27:32;;;;;;;54.50;45.80;;;;;;;8.56;72.83;100624.80;108370;1280;23441;-77
2022/10/14 00:30:03;;;;;;;53.00;45.70;;;;;;;8.54;72.87;100624.48;108651;1280;22001;-77
2022/10/14 00:32:32;;;;;;;49.90;44.60;;;;;;;8.53;72.90;100625.41;108618;1280;23691;-78
2022/10/14 00:35:00;;;;;;;51.70;46.10;;;;;;;8.54;73.05;100619.64;108328;1280;21948;-78
2022/10/14 00:37:30;;;;;;;56.10;47.60;;;;;;;8.56;72.94;100620.44;108364;1280;22002;-77
2022/10/14 00:39:59;;;;;;;52.90;46.10;;;;;;;8.59;73.07;100619.53;108137;1280;23786;-77
2022/10/14 00:42:32;;;;;;;54.80;48.10;;;;;;;8.59;73.00;100613.80;108605;1280;23444;-78
2022/10/14 00:45:13;;;;;;;57.60;49.20;;;;;;;8.60;73.05;100616.21;108420;1280;21961;-78
2022/10/14 00:47:43;;;;;;;52.00;46.40;;;;;;;8.61;73.00;100614.61;108373;1280;22625;-78
2022/10/14 00:50:14;;;;;;;51.80;46.00;;;;;;;8.61;73.02;100613.05;108223;1280;21936;-79
2022/10/14 00:52:44;;;;;;;57.20;48.90;;;;;;;8.61;73.03;100611.14;108456;1279;21962;-79
2022/10/14 00:55:18;;;;;;;53.20;47.20;;;;;;;8.59;72.90;100605.98;108371;1280;24368;-78
2022/10/14 00:57:49;;;;;;;52.90;46.40;;;;;;;8.57;72.86;100603.10;108486;1281;22901;-79
2022/10/14 01:00:24;;;;;;;55.60;48.40;;;;;;;8.54;72.96;100605.27;108421;1283;21933;-79
2022/10/14 01:02:55;;;;;;;54.50;47.40;;;;;;;8.51;73.01;100602.05;108459;1281;22166;-78
2022/10/14 01:05:35;;;;;;;57.10;50.50;;;;;;;8.47;73.20;100603.88;108521;1280;21986;-80
2022/10/14 01:08:25;;;;;;;55.40;47.60;;;;;;;8.43;73.28;100600.48;108510;1280;24339;-79
2022/10/14 01:11:20;;;;;;;53.70;46.90;;;;;;;8.41;73.33;100600.17;108427;1280;22713;-78
2022/10/14 01:14:07;;;;;;;54.70;48.00;;;;;;;8.39;73.56;100599.87;108405;1281;22010;-78
2022/10/14 01:16:58;;;;;;;53.90;48.40;;;;;;;8.36;73.62;100591.96;108509;1280;21933;-78
2022/10/14 01:20:15;;;;;;;;;;;;;;;8.33;73.76;100588.03;108412;1280;21914;-79
2022/10/14 01:23:15;;;;;;;58.90;50.00;;;;;;;8.22;74.06;100588.14;108236;1286;23072;-79
2022/10/14 01:26:41;;;;;;;55.00;49.00;;;;;;;8.20;74.15;100588.36;107770;1289;21974;-77
2022/10/14 01:29:38;;;;;;;58.90;51.40;;;;;;;8.20;74.30;100588.20;107636;1292;21974;-77
2022/10/14 01:32:18;;;;;;;56.20;50.30;;;;;;;8.24;74.38;100592.27;107602;1290;22055;-77
2022/10/14 01:35:20;;;;;;;58.70;51.50;;;;;;;8.27;74.33;100588.02;107218;1292;22005;-77
2022/10/14 01:38:18;;;;;;;57.20;49.30;;;;;;;8.30;74.42;100585.52;107451;1293;21992;-76
2022/10/14 01:41:04;;;;;;;58.20;51.90;;;;;;;8.31;74.46;100578.73;107490;1289;21955;-77
2022/10/14 01:43:34;;;;;;;55.20;48.90;;;;;;;8.32;74.47;100580.62;107806;1286;22827;-77
2022/10/14 01:46:07;;;;;;;52.80;47.00;;;;;;;8.35;74.55;100574.47;107996;1286;21935;-78
2022/10/14 01:48:40;;;;;;;57.10;50.80;;;;;;;8.40;74.57;100571.08;108057;1286;23142;-77
2022/10/14 01:51:17;;;;;;;55.60;49.70;;;;;;;8.45;74.62;100570.79;108095;1286;21944;-77
2022/10/14 01:53:56;;;;;;;54.40;48.60;;;;;;;8.44;74.45;100561.80;107778;1286;23688;-76
2022/10/14 01:56:29;;;;;;;68.60;51.70;;;;;;;8.42;74.42;100563.74;108034;1286;21962;-78
2022/10/14 01:59:00;;;;;;;58.60;51.20;;;;;;;8.43;74.65;100568.92;108053;1286;21948;-77
2022/10/14 02:01:33;;;;;;;56.00;49.70;;;;;;;8.49;74.88;100572.79;107963;1286;23568;-76
2022/10/14 02:04:13;;;;;;;56.30;50.20;;;;;;;8.55;74.94;100570.71;108179;1280;21924;-76
2022/10/14 02:06:50;;;;;;;57.70;51.40;;;;;;;8.57;74.88;100569.95;108142;1280;22160;-76
2022/10/14 02:09:59;;;;;;;59.90;53.40;;;;;;;8.60;74.79;100568.48;108026;1281;21969;-76
2022/10/14 02:13:15;;;;;;;56.20;49.30;;;;;;;8.62;74.81;100565.51;108365;1280;22054;-76
2022/10/14 02:15:50;;;;;;;57.60;49.80;;;;;;;8.61;74.72;100563.61;108332;1279;23057;-77
2022/10/14 02:18:36;;;;;;;54.80;49.20;;;;;;;8.65;74.67;100563.86;108614;1280;23767;-78
2022/10/14 02:21:27;;;;;;;54.80;49.10;;;;;;;8.67;74.73;100562.06;108112;1280;24350;-78
2022/10/14 02:24:04;;;;;;;55.00;49.00;;;;;;;8.68;74.56;100564.98;108055;1286;21935;-78
2022/10/14 02:26:35;;;;;;;54.00;48.30;;;;;;;8.66;74.41;100562.62;108220;1286;23710;-77
2022/10/14 02:29:05;;;;;;;57.20;50.10;;;;;;;8.65;74.47;100560.39;107694;1287;22335;-77
2022/10/14 02:31:38;;;;;;;54.90;49.00;;;;;;;8.63;74.51;100556.45;107957;1287;21953;-77
2022/10/14 02:34:11;;;;;;;56.50;50.50;;;;;;;8.57;74.47;100552.61;107774;1286;22714;-78
2022/10/14 02:36:42;;;;;;;55.90;49.90;;;;;;;8.49;74.55;100547.11;108239;1286;22063;-78
2022/10/14 02:39:18;;;;;;;58.70;52.20;;;;;;;8.43;74.73;100548.81;108049;1286;23588;-78
2022/10/14 02:41:47;;;;;;;57.50;51.30;;;;;;;8.40;74.84;100554.95;108282;1280;22020;-78
2022/10/14 02:44:16;;;;;;;58.80;51.90;;;;;;;8.40;74.96;100553.73;108175;1280;23635;-78
2022/10/14 02:46:47;;;;;;;60.80;52.70;;;;;;;8.42;75.05;100553.34;108396;1283;22410;-77
2022/10/14 02:49:17;;;;;;;56.10;50.10;;;;;;;8.42;75.10;100554.02;108398;1280;22926;-78
2022/10/14 02:51:46;;;;;;;57.70;52.00;;;;;;;8.41;75.18;100557.17;108326;1280;21937;-78
2022/10/14 02:54:15;;;;;;;59.40;50.60;;;;;;;8.44;75.27;100557.45;108409;1281;23156;-77
2022/10/14 02:56:43;;;;;;;57.50;51.40;;;;;;;8.50;75.22;100555.41;108279;1280;21963;-78
2022/10/14 02:59:12;;;;;;;58.90;52.40;;;;;;;8.52;75.21;100555.86;108379;1281;21939;-77
2022/10/14 03:01:41;;;;;;;57.70;51.40;;;;;;;8.51;75.12;100555.89;107990;1286;22040;-77
2022/10/14 03:04:10;;;;;;;58.50;52.40;;;;;;;8.48;75.14;100549.38;107997;1286;21942;-77
2022/10/14 03:06:39;;;;;;;60.30;53.10;;;;;;;8.44;75.20;100550.86;107799;1286;23745;-77
2022/10/14 03:09:08;;;;;;;55.60;49.80;;;;;;;8.42;75.31;100552.30;107919;1286;22569;-77
2022/10/14 03:11:39;;;;;;;57.00;51.00;;;;;;;8.45;75.54;100561.09;107966;1286;21958;-78
2022/10/14 03:14:11;;;;;;;59.30;52.90;;;;;;;8.50;75.65;100564.24;108014;1286;23047;-78
2022/10/14 03:16:40;;;;;;;58.20;51.90;;;;;;;8.56;75.69;100564.09;108157;1286;21978;-77
2022/10/14 03:19:09;;;;;;;57.30;51.10;;;;;;;8.60;75.62;100563.98;107764;1280;22354;-78
2022/10/14 03:21:42;;;;;;;60.70;54.20;;;;;;;8.63;75.56;100561.83;108371;1280;23055;-77
2022/10/14 03:24:16;;;;;;;61.70;51.80;;;;;;;8.63;75.42;100559.73;108375;1280;21942;-77
2022/10/14 03:26:45;;;;;;;59.10;52.70;;;;;;;8.63;75.51;100563.04;108113;1280;23049;-77
2022/10/14 03:29:16;;;;;;;59.70;52.20;;;;;;;8.61;75.39;100561.70;108371;1283;21931;-77
2022/10/14 03:32:13;;;;;;;58.40;52.20;;;;;;;8.60;75.42;100557.39;108466;1280;23609;-77
2022/10/14 03:35:00;;;;;;;61.40;55.00;;;;;;;8.58;75.37;100559.00;108480;1280;21929;-78
2022/10/14 03:37:30;;;;;;;57.30;51.30;;;;;;;8.58;75.50;100558.66;108477;1280;21931;-77
2022/10/14 03:39:59;;;;;;;58.80;52.20;;;;;;;8.59;75.57;100554.64;108514;1280;21940;-77
2022/10/14 03:42:31;;;;;;;64.40;54.60;;;;;;;8.60;75.56;100547.02;108358;1281;21933;-77
2022/10/14 03:45:03;;;;;;;60.00;53.10;;;;;;;8.56;75.62;100544.33;108357;1280;21953;-76
2022/10/14 03:47:33;;;;;;;59.20;53.00;;;;;;;8.52;75.69;100541.14;108448;1280;24293;-77
2022/10/14 03:50:03;;;;;;;62.80;56.00;;;;;;;8.48;75.77;100544.88;108179;1280;23624;-78
2022/10/14 03:52:39;;;;;;;62.20;55.50;;;;;;;8.45;75.78;100547.21;108430;1281;23579;-78
2022/10/14 03:55:20;;;;;;;63.90;57.20;;;;;;;8.47;76.07;100544.02;108631;1280;21929;-78
2022/10/14 03:57:50;;;;;;;66.80;58.70;;;;;;;8.51;75.99;100542.88;108562;1280;21962;-79
2022/10/14 04:00:20;;;;;;;67.00;57.90;;;;;;;8.52;75.83;100543.36;108393;1281;21944;-78
2022/10/14 04:02:51;;;;;;;66.30;59.20;;;;;;;8.54;75.88;100545.76;108368;1280;23679;-79
2022/10/14 04:05:46;;;;;;;65.10;58.20;;;;;;;8.55;75.97;100547.30;108391;1280;23077;-79
2022/10/14 04:08:23;;;;;;;67.70;60.60;;;;;;;8.57;75.92;100543.27;108547;1278;22010;-81
2022/10/14 04:10:57;;;;;;;68.10;61.00;;;;;;;8.58;75.84;100543.92;108442;1280;21951;-79
2022/10/14 04:13:28;;;;;;;66.80;59.60;;;;;;;8.59;75.83;100546.14;108357;1280;23615;-79
2022/10/14 04:16:03;;;;;;;67.50;60.10;;;;;;;8.61;75.77;100541.41;108353;1278;23671;-78
2022/10/14 04:18:39;;;;;;;;;;;;;;;8.60;75.65;100535.71;108909;1281;21923;-78
2022/10/14 04:21:11;;;;;;;67.10;59.70;;;;;;;8.52;75.78;100537.50;108442;1280;22222;-78
2022/10/14 04:23:42;;;;;;;67.40;60.20;;;;;;;8.49;75.70;100537.21;108337;1280;23690;-78
2022/10/14 04:26:16;;;;;;;73.70;63.80;;;;;;;8.50;75.65;100530.26;108269;1280;21936;-79
2022/10/14 04:28:46;;;;;;;69.80;62.40;;;;;;;8.47;75.49;100533.80;108417;1280;22709;-76
2022/10/14 04:31:25;;;;;;;69.00;61.80;;;;;;;8.41;75.59;100536.02;108421;1275;21932;-76
2022/10/14 04:33:59;;;;;;;71.10;63.40;;;;;;;8.42;75.83;100534.43;108445;1280;21975;-77
2022/10/14 04:36:31;;;;;;;70.50;63.10;;;;;;;8.42;75.68;100525.23;108337;1280;23392;-77
2022/10/14 04:39:01;;;;;;;71.80;64.00;;;;;;;8.39;75.66;100530.00;108412;1280;21965;-78
2022/10/14 04:41:30;;;;;;;68.10;61.10;;;;;;;8.35;75.80;100536.14;108608;1280;21952;-77
2022/10/14 04:44:01;;;;;;;72.90;63.80;;;;;;;8.38;75.84;100529.67;108455;1274;21938;-78
2022/10/14 04:46:34;;;;;;;71.20;63.70;;;;;;;8.40;75.92;100526.34;108438;1280;21930;-77
2022/10/14 04:49:03;;;;;;;71.70;64.40;;;;;;;8.41;75.77;100528.92;108213;1280;22981;-78
2022/10/14 04:51:38;;;;;;;72.50;64.90;;;;;;;8.37;75.76;100528.47;108040;1287;21982;-78
2022/10/14 04:54:17;;;;;;;71.90;64.20;;;;;;;8.37;75.89;100526.90;108176;1286;23778;-78
2022/10/14 04:57:04;;;;;;;72.20;64.70;;;;;;;8.37;75.90;100521.70;107964;1286;24193;-78
2022/10/14 04:59:34;;;;;;;70.30;63.00;;;;;;;8.38;75.89;100521.69;108082;1286;23589;-78
2022/10/14 05:02:32;;;;;;;64.60;57.60;;;;;;;8.38;75.92;100519.10;107960;1286;21954;-77
2022/10/14 05:05:02;;;;;;;68.00;61.10;;;;;;;8.38;75.82;100520.48;108155;1286;21956;-77
2022/10/14 05:07:33;;;;;;;65.70;58.90;;;;;;;8.38;75.70;100522.72;107947;1286;21944;-78
2022/10/14 05:10:16;;;;;;;68.80;61.30;;;;;;;8.36;75.57;100519.30;108318;1281;21940;-78
2022/10/14 05:12:47;;;;;;;71.10;63.40;;;;;;;8.35;75.58;100517.93;108379;1283;21953;-76
2022/10/14 05:15:16;;;;;;;75.80;65.30;;;;;;;8.36;75.63;100518.09;108235;1283;21949;-76
2022/10/14 05:18:11;;;;;;;73.10;65.20;;;;;;;8.35;75.70;100516.73;108633;1270;21940;-75
2022/10/14 05:20:58;;;;;;;76.90;64.60;;;;;;;8.34;75.71;100515.88;108357;1280;21936;-75
2022/10/14 05:23:33;;;;;;;74.60;66.40;;;;;;;8.34;75.64;100517.12;108320;1280;23653;-75
2022/10/14 05:26:03;;;;;;;71.80;64.50;;;;;;;8.33;75.64;100515.76;108402;1280;23001;-75
2022/10/14 05:28:32;;;;;;;71.30;64.00;;;;;;;8.32;75.64;100519.42;108323;1280;22252;-75
2022/10/14 05:31:01;;;;;;;71.90;64.30;;;;;;;8.31;75.61;100518.77;107720;1286;24058;-76
2022/10/14 05:33:31;;;;;;;73.40;66.10;;;;;;;8.31;75.66;100514.23;108311;1286;22072;-76
2022/10/14 05:36:01;;;;;;;71.60;63.80;;;;;;;8.32;75.78;100511.25;107934;1285;23270;-75
2022/10/14 05:38:33;;;;;;;73.80;65.50;;;;;;;8.33;75.73;100511.92;107775;1288;23588;-77
2022/10/14 05:41:03;;;;;;;70.90;63.00;;;;;;;8.33;75.81;100509.49;107763;1280;22524;-75
2022/10/14 05:43:33;;;;;;;75.60;67.60;;;;;;;8.34;75.89;100507.39;108004;1286;21992;-76
2022/10/14 05:46:06;;;;;;;72.80;65.00;;;;;;;8.37;75.98;100504.02;108119;1285;21958;-76
2022/10/14 05:48:38;;;;;;;73.50;65.50;;;;;;;8.41;75.98;100502.38;108080;1280;23794;-76
2022/10/14 05:51:07;;;;;;;72.10;64.80;;;;;;;8.45;76.01;100502.98;108168;1281;23083;-76
2022/10/14 05:53:38;;;;;;;69.90;62.50;;;;;;;8.48;76.00;100500.81;108384;1280;21935;-76
2022/10/14 05:56:12;;;;;;;70.20;63.00;;;;;;;8.50;76.05;100501.47;108435;1269;22413;-76
2022/10/14 05:58:41;;;;;;;67.60;60.70;;;;;;;8.50;76.08;100499.38;108114;1281;21938;-76
2022/10/14 06:01:11;;;;;;;68.40;61.10;;;;;;;8.54;76.26;100499.60;108507;1280;21938;-78
2022/10/14 06:03:42;;;;;;;70.40;62.10;;;;;;;8.62;76.36;100501.31;108440;1280;21923;-78
2022/10/14 06:06:15;;;;;;;71.00;63.60;;;;;;;8.69;76.59;100499.05;108443;1281;21927;-76
2022/10/14 06:08:44;;;;;;;71.00;63.30;;;;;;;8.78;76.64;100501.56;108170;1282;23116;-77
2022/10/14 06:11:13;;;;;;;71.60;64.40;;;;;;;8.86;76.55;100507.25;108371;1278;22422;-77
2022/10/14 06:13:43;;;;;;;68.40;60.50;;;;;;;8.92;76.53;100507.77;108120;1282;23685;-78
2022/10/14 06:16:12;;;;;;;70.90;63.80;;;;;;;9.00;76.59;100509.29;108256;1280;21925;-77
2022/10/14 06:18:40;;;;;;;66.80;60.00;;;;;;;9.09;76.62;100510.06;108232;1282;21945;-78
2022/10/14 06:21:11;;;;;;;70.40;63.00;;;;;;;9.19;76.72;100511.86;107996;1286;23372;-78
2022/10/14 06:23:40;;;;;;;67.90;60.90;;;;;;;9.32;76.83;100506.78;108185;1286;21926;-78
2022/10/14 06:26:09;;;;;;;66.30;59.80;;;;;;;9.42;76.55;100507.00;108025;1286;23738;-79
2022/10/14 06:28:38;;;;;;;69.10;62.20;;;;;;;9.51;76.51;100511.23;108123;1286;22094;-77
2022/10/14 06:31:07;;;;;;;71.90;64.20;;;;;;;9.65;76.68;100521.07;107927;1287;21939;-76
2022/10/14 06:33:36;;;;;;;69.80;62.10;;;;;;;9.80;76.61;100521.64;107742;1287;21989;-76
2022/10/14 06:36:05;;;;;;;74.50;66.50;;;;;;;9.91;76.14;100514.84;108017;1289;21968;-77
2022/10/14 06:38:34;;;;;;;70.20;62.60;;;;;;;9.98;75.75;100518.10;108026;1282;21949;-77
2022/10/14 06:41:03;;;;;;;73.10;65.20;;;;;;;10.05;75.68;100525.34;108160;1281;21950;-78
2022/10/14 06:43:34;;;;;;;71.20;63.80;;;;;;;10.16;75.71;100523.76;108383;1281;21949;-78
2022/10/14 06:46:04;;;;;;;73.70;65.90;;;;;;;10.29;75.53;100527.02;108547;1281;21987;-77
2022/10/14 06:48:33;;;;;;;72.60;64.90;;;;;;;10.42;75.48;100529.54;108569;1280;23025;-79
2022/10/14 06:51:02;;;;;;;73.60;65.70;;;;;;;10.52;75.19;100529.37;108426;1281;21935;-76
2022/10/14 06:53:31;;;;;;;74.60;66.80;;;;;;;10.59;74.76;100529.11;108286;1283;21955;-76
2022/10/14 06:56:04;;;;;;;75.30;67.00;;;;;;;10.65;74.49;100531.54;108264;1283;23638;-76
2022/10/14 06:58:33;;;;;;;75.80;67.00;;;;;;;10.69;74.25;100528.92;108640;1280;23792;-75
2022/10/14 07:01:04;;;;;;;73.30;65.20;;;;;;;10.75;74.07;100530.30;108354;1280;22024;-76
2022/10/14 07:03:38;;;;;;;68.80;61.70;;;;;;;10.80;74.00;100525.93;108344;1280;24307;-76
2022/10/14 07:06:07;;;;;;;72.10;64.60;;;;;;;10.88;74.13;100529.13;108332;1282;22705;-75
2022/10/14 07:08:36;;;;;;;71.30;64.00;;;;;;;11.01;74.12;100526.75;108207;1280;21918;-75
2022/10/14 07:11:06;;;;;;;70.40;62.90;;;;;;;11.14;74.03;100528.00;108051;1283;21942;-75
2022/10/14 07:13:34;;;;;;;66.40;59.90;;;;;;;11.25;73.68;100530.39;108245;1283;22745;-75
2022/10/14 07:16:03;;;;;;;65.90;59.10;;;;;;;11.36;73.59;100528.05;108135;1281;21964;-75
2022/10/14 07:18:32;;;;;;;66.90;58.30;;;;;;;11.52;73.58;100531.09;108107;1282;21915;-76
2022/10/14 07:21:05;;;;;;;64.50;56.00;;;;;;;11.67;73.03;100527.55;108453;1283;23145;-76
2022/10/14 07:23:34;;;;;;;65.00;58.40;;;;;;;11.78;72.74;100528.16;107867;1286;21943;-75
2022/10/14 07:26:03;;;;;;;61.30;54.80;;;;;;;11.90;72.44;100529.27;107650;1286;23055;-74
2022/10/14 07:28:33;;;;;;;61.20;54.70;;;;;;;12.03;72.27;100532.07;107690;1289;23765;-75
2022/10/14 07:31:08;;;;;;;53.70;47.50;;;;;;;12.18;72.13;100528.98;107400;1287;22312;-76
2022/10/14 07:33:39;;;;;;;55.60;46.50;;;;;;;12.30;71.42;100530.23;107603;1289;21961;-75
2022/10/14 07:36:14;;;;;;;52.90;47.20;;;;;;;12.35;70.85;100530.23;107649;1287;23111;-76
2022/10/14 07:38:49;;;;;;;52.60;47.20;;;;;;;12.37;70.41;100531.70;107859;1286;23598;-76
2022/10/14 07:41:22;;;;;;;58.70;52.50;;;;;;;12.46;70.41;100532.20;107428;1287;21976;-76
2022/10/14 07:43:56;;;;;;;52.80;47.20;;;;;;;12.62;70.58;100530.11;108099;1286;23212;-76
2022/10/14 07:46:31;;;;;;;65.70;58.80;;;;;;;12.77;70.20;100532.92;107701;1284;22039;-75
2022/10/14 07:49:10;;;;;;;50.60;45.10;;;;;;;12.89;69.84;100528.75;107653;1286;22936;-75
2022/10/14 07:51:40;;;;;;;50.30;44.80;;;;;;;12.98;69.52;100532.01;108270;1277;23095;-75
2022/10/14 07:54:23;;;;;;;48.30;43.20;;;;;;;13.05;69.07;100532.55;107963;1286;23075;-76
2022/10/14 07:56:52;;;;;;;49.30;43.80;;;;;;;13.12;68.77;100529.31;107693;1286;22523;-75
2022/10/14 07:59:21;;;;;;;46.10;41.30;;;;;;;13.20;68.64;100529.09;107942;1283;22281;-76
2022/10/14 08:01:51;;;;;;;51.90;45.10;;;;;;;13.26;68.25;100532.49;108107;1279;21967;-76
2022/10/14 08:04:20;;;;;;;46.40;41.60;;;;;;;13.33;68.13;100532.71;108247;1280;22556;-76
2022/10/14 08:06:50;;;;;;;50.00;44.60;;;;;;;13.42;67.99;100534.95;108236;1286;21960;-76
2022/10/14 08:09:19;;;;;;;50.40;45.00;;;;;;;13.50;67.84;100528.79;107938;1286;21947;-75
2022/10/14 08:11:48;;;;;;;51.30;45.90;;;;;;;13.59;67.62;100523.50;107979;1284;22064;-74
2022/10/14 08:14:17;;;;;;;48.90;43.90;;;;;;;13.70;67.66;100526.27;107979;1285;21986;-75
2022/10/14 08:16:46;;;;;;;49.70;40.10;;;;;;;13.84;67.53;100528.91;107856;1284;21952;-75
2022/10/14 08:19:15;;;;;;;45.80;41.20;;;;;;;14.00;67.37;100531.98;108020;1286;22719;-75
2022/10/14 08:21:44;;;;;;;44.80;39.90;;;;;;;14.15;67.12;100535.44;108151;1283;21958;-75
2022/10/14 08:24:13;;;;;;;46.60;41.30;;;;;;;14.32;66.72;100536.20;108020;1283;21954;-75
2022/10/14 08:26:55;;;;;;;43.40;39.10;;;;;;;14.38;65.65;100533.41;107974;1283;21944;-75
2022/10/14 08:29:25;;;;;;;44.30;38.60;;;;;;;14.47;65.80;100533.50;108361;1283;23638;-76
2022/10/14 08:31:54;;;;;;;42.30;37.60;;;;;;;14.62;65.44;100535.93;108053;1283;21946;-75
2022/10/14 08:34:23;;;;;;;41.20;36.80;;;;;;;14.72;64.89;100536.43;108445;1283;21957;-76
2022/10/14 08:36:52;;;;;;;43.90;39.20;;;;;;;14.82;64.67;100538.39;107535;1283;1017033;-74
2022/10/14 08:39:21;;;;;;;44.00;39.60;;;;;;;14.95;64.46;100539.45;108241;1280;21934;-74
2022/10/14 08:42:19;;;;;;;42.40;38.20;;;;;;;15.10;64.17;100538.00;108118;1283;21913;-75
2022/10/14 08:44:56;;;;;;;42.30;37.80;;;;;;;15.23;63.82;100533.42;108203;1283;23726;-76
2022/10/14 08:47:36;;;;;;;42.60;37.20;;;;;;;15.38;63.81;100534.87;108567;1281;22003;-76
2022/10/14 08:50:25;;;;;;;41.10;37.00;;;;;;;15.46;62.95;100535.33;108104;1283;22031;-74
2022/10/14 08:53:32;;;;;;;48.00;40.80;;;;;;;15.53;62.91;100536.32;107877;1286;22438;-75
2022/10/14 08:56:02;;;;;;;42.60;38.10;;;;;;;15.62;62.53;100536.69;108093;1286;21982;-75
2022/10/14 08:58:46;;;;;;;43.70;39.10;;;;;;;15.63;61.79;100535.92;107846;1286;21956;-75
2022/10/14 09:01:43;;;;;;;42.30;38.10;;;;;;;15.66;61.79;100535.08;107911;1286;23061;-75
2022/10/14 09:04:14;;;;;;;42.20;37.60;;;;;;;15.69;61.60;100531.23;107933;1286;22182;-75
2022/10/14 09:06:47;;;;;;;42.20;37.70;;;;;;;15.78;61.88;100526.72;107896;1287;22094;-75
2022/10/14 09:09:40;;;;;;;39.10;35.10;;;;;;;15.94;61.91;100523.15;107878;1286;22053;-75
2022/10/14 09:12:19;;;;;;;44.70;40.00;;;;;;;16.03;61.16;100522.98;108487;1283;22420;-75
2022/10/14 09:15:11;;;;;;;43.20;38.70;;;;;;;16.08;60.79;100518.32;108122;1283;22383;-74
2022/10/14 09:17:57;;;;;;;41.40;37.40;;;;;;;16.20;61.07;100520.95;108237;1282;22007;-76
2022/10/14 09:20:27;;;;;;;42.00;37.50;;;;;;;16.29;60.47;100518.66;108158;1283;21984;-75
2022/10/14 09:23:24;;;;;;;44.40;39.80;;;;;;;16.36;60.21;100518.61;107826;1289;23689;-75
2022/10/14 09:26:04;;;;;;;40.00;36.10;;;;;;;16.45;60.08;100519.33;108068;1289;21938;-75
2022/10/14 09:28:43;;;;;;;40.80;36.30;;;;;;;16.54;59.84;100521.95;107995;1288;21963;-75
2022/10/14 09:31:13;;;;;;;38.70;34.50;;;;;;;16.61;59.62;100519.40;107472;1292;21924;-75
2022/10/14 09:33:43;;;;;;;40.50;36.20;;;;;;;16.72;59.89;100516.30;107364;1295;22509;-75
2022/10/14 09:36:18;;;;;;;43.40;38.80;;;;;;;16.85;59.37;100514.49;107860;1290;22653;-76
2022/10/14 09:38:52;;;;;;;38.90;34.10;;;;;;;16.90;58.77;100514.53;107642;1292;22089;-76
2022/10/14 09:41:29;;;;;;;38.60;34.30;;;;;;;16.87;58.34;100513.49;107844;1289;21962;-75
2022/10/14 09:44:24;;;;;;;39.40;33.40;;;;;;;16.87;58.44;100511.72;107927;1287;23058;-75
2022/10/14 09:47:01;;;;;;;45.20;36.40;;;;;;;16.89;58.39;100513.54;107941;1287;22739;-75
2022/10/14 09:49:37;;;;;;;37.90;33.90;;;;;;;17.00;58.48;100516.92;108106;1283;23848;-76
2022/10/14 09:52:21;;;;;;;39.00;34.40;;;;;;;17.11;58.22;100519.88;108222;1282;21949;-75
2022/10/14 09:55:00;;;;;;;38.60;33.60;;;;;;;17.24;58.01;100520.15;108555;1283;21942;-75
2022/10/14 09:57:30;;;;;;;37.90;30.90;;;;;;;17.33;57.46;100517.98;107770;1284;21950;-75
2022/10/14 10:00:03;;;;;;;39.40;34.50;;;;;;;17.37;57.17;100516.00;107844;1288;21956;-75
2022/10/14 10:02:43;;;;;;;40.90;36.60;;;;;;;17.36;57.00;100513.39;108178;1288;23617;-75
2022/10/14 10:05:31;;;;;;;39.80;34.70;;;;;;;17.36;56.78;100512.20;107718;1284;23091;-74
2022/10/14 10:08:17;;;;;;;39.00;35.00;;;;;;;17.32;56.68;100515.58;107983;1288;23838;-74
2022/10/14 10:11:03;;;;;;;37.40;33.40;;;;;;;17.29;56.80;100511.73;108071;1285;23811;-75
2022/10/14 10:13:44;;;;;;;43.80;35.20;;;;;;;17.34;57.06;100510.36;107652;1292;21958;-75
2022/10/14 10:16:33;;;;;;;39.00;35.10;;;;;;;17.39;56.91;100508.80;108027;1288;21937;-75
2022/10/14 10:19:32;;;;;;;37.80;33.80;;;;;;;17.43;56.85;100507.67;108072;1287;21938;-75
2022/10/14 10:22:20;;;;;;;38.20;33.80;;;;;;;17.47;56.91;100506.01;108157;1285;22223;-76
2022/10/14 10:24:58;;;;;;;36.80;32.90;;;;;;;17.54;56.75;100506.66;107994;1289;23742;-75
2022/10/14 10:27:34;;;;;;;35.20;31.40;;;;;;;17.57;56.50;100505.75;107946;1289;22481;-75
2022/10/14 10:30:47;;;;;;;35.20;31.50;;;;;;;17.59;56.17;100500.20;108072;1285;21965;-76
2022/10/14 10:33:35;;;;;;;37.10;33.20;;;;;;;17.54;55.87;100501.52;108008;1287;21944;-75
2022/10/14 10:36:32;;;;;;;29.50;26.30;;;;;;;17.54;55.96;100499.73;108145;1286;21958;-75
2022/10/14 10:39:37;;;;;;;33.00;26.30;;;;;;;17.59;55.87;100501.56;107790;1288;22927;-75
2022/10/14 10:42:27;;;;;;;28.80;25.70;;;;;;;17.64;55.79;100501.75;108023;1285;23618;-75
2022/10/14 10:45:18;;;;;;;35.00;27.90;;;;;;;17.67;55.47;100497.36;107819;1291;22327;-75
2022/10/14 10:47:59;;;;;;;27.70;25.00;;;;;;;17.70;55.59;100491.20;107571;1288;23172;-74
2022/10/14 10:50:46;;;;;;;28.30;25.40;;;;;;;17.86;56.50;100492.27;107062;1284;22113;-75
2022/10/14 10:54:08;;;;;;;30.50;25.10;;;;;;;18.19;56.77;100487.41;107531;1292;21967;-75
2022/10/14 10:57:00;;;;;;;29.20;25.10;;;;;;;18.53;55.85;100486.36;106535;1301;22018;-75
2022/10/14 11:00:00;;;;;;;28.90;25.80;;;;;;;18.58;53.54;100483.93;106183;1301;23206;-75
2022/10/14 11:02:56;;;;;;;26.80;24.00;;;;;;;18.51;53.64;100478.70;106537;1301;23087;-75
2022/10/14 11:12:01;;;;;;;24.30;21.60;;;;;;;18.60;53.03;100470.56;106828;1298;21953;-75
2022/10/14 11:12:41;;;;;;;32.50;25.90;;;;;;;18.54;52.76;100464.42;107370;1293;23099;-74
2022/10/14 11:16:13;;;;;;;30.80;25.40;;;;;;;18.49;52.61;100460.21;107118;1295;21944;-75
2022/10/14 11:19:13;;;;;;;27.50;23.90;;;;;;;18.46;52.74;100465.20;107412;1294;23789;-77
2022/10/14 11:21:55;;;;;;;35.10;25.10;;;;;;;18.46;52.57;100468.17;107469;1294;21960;-75
2022/10/14 11:24:38;;;;;;;28.80;22.00;;;;;;;18.54;52.79;100466.76;107205;1294;22008;-76
2022/10/14 11:27:19;;;;;;;26.10;20.80;;;;;;;18.53;52.00;100464.73;107455;1292;23175;-75
2022/10/14 11:30:13;;;;;;;27.80;21.70;;;;;;;18.47;51.86;100463.14;107333;1295;21973;-75
2022/10/14 11:32:51;;;;;;;26.50;23.20;;;;;;;18.48;52.11;100462.73;107439;1288;22008;-75
2022/10/14 11:35:52;;;;;;;28.00;23.20;;;;;;;18.50;51.98;100459.45;107649;1288;22214;-75
2022/10/14 11:38:29;;;;;;;26.80;22.50;;;;;;;18.39;51.76;100454.38;107695;1289;23729;-75
2022/10/14 11:41:24;;;;;;;26.70;23.10;;;;;;;18.31;51.54;100456.83;107757;1291;24285;-76
2022/10/14 11:44:30;;;;;;;25.00;22.50;;;;;;;18.18;51.70;100455.08;107670;1289;21943;-75
2022/10/14 11:47:08;;;;;;;28.60;21.90;;;;;;;18.11;51.96;100454.48;108104;1285;21973;-75
2022/10/14 11:49:52;;;;;;;27.30;23.20;;;;;;;18.11;52.28;100457.02;107983;1286;21980;-75
2022/10/14 11:52:28;;;;;;;27.00;24.30;;;;;;;18.12;52.43;100452.49;107947;1286;22767;-76
2022/10/14 11:55:16;;;;;;;26.70;23.90;;;;;;;18.15;52.45;100450.77;107669;1288;22020;-75
2022/10/14 11:57:58;;;;;;;27.50;24.60;;;;;;;18.13;52.39;100447.52;107949;1277;21972;-75